sensor_id;sensor_type;location;lat;lon;timestamp;P1;durP1;ratioP1;P2;durP2;ratioP2
60292;SDS011;52402;52.670;6.750;2023-04-01T00:00:15;13.68;;;10.98;;
60292;SDS011;52402;52.670;6.750;2023-04-01T00:02:42;14.10;;;10.63;;
60292;SDS011;52402;52.670;6.750;2023-04-01T00:05:08;11.95;;;10.23;;
60292;SDS011;52402;52.670;6.750;2023-04-01T00:07:35;14.98;;;9.82;;
60292;SDS011;52402;52.670;6.750;2023-04-01T00:10:06;12.40;;;9.77;;
60292;SDS011;52402;52.670;6.750;2023-04-01T00:12:33;13.18;;;10.40;;
60292;SDS011;52402;52.670;6.750;2023-04-01T00:14:58;12.23;;;9.80;;
60292;SDS011;52402;52.670;6.750;2023-04-01T00:17:24;14.07;;;10.50;;
60292;SDS011;52402;52.670;6.750;2023-04-01T00:19:50;14.77;;;10.40;;
60292;SDS011;52402;52.670;6.750;2023-04-01T00:22:15;17.42;;;10.30;;
60292;SDS011;52402;52.670;6.750;2023-04-01T00:24:41;12.13;;;8.35;;
60292;SDS011;52402;52.670;6.750;2023-04-01T00:27:07;11.60;;;8.07;;
60292;SDS011;52402;52.670;6.750;2023-04-01T00:29:33;11.23;;;7.78;;
60292;SDS011;52402;52.670;6.750;2023-04-01T00:31:59;10.80;;;7.45;;
60292;SDS011;52402;52.670;6.750;2023-04-01T00:34:26;11.57;;;8.43;;
60292;SDS011;52402;52.670;6.750;2023-04-01T00:36:51;9.68;;;7.32;;
60292;SDS011;52402;52.670;6.750;2023-04-01T00:39:20;10.82;;;7.32;;
60292;SDS011;52402;52.670;6.750;2023-04-01T00:41:46;10.25;;;7.63;;
60292;SDS011;52402;52.670;6.750;2023-04-01T00:46:45;11.35;;;8.57;;
60292;SDS011;52402;52.670;6.750;2023-04-01T00:49:11;9.90;;;7.13;;
60292;SDS011;52402;52.670;6.750;2023-04-01T00:51:37;8.77;;;7.38;;
60292;SDS011;52402;52.670;6.750;2023-04-01T00:54:05;11.75;;;7.93;;
60292;SDS011;52402;52.670;6.750;2023-04-01T00:56:36;10.75;;;7.32;;
60292;SDS011;52402;52.670;6.750;2023-04-01T00:59:07;10.05;;;8.35;;
60292;SDS011;52402;52.670;6.750;2023-04-01T01:01:39;14.45;;;9.48;;
60292;SDS011;52402;52.670;6.750;2023-04-01T01:04:05;11.90;;;9.55;;
60292;SDS011;52402;52.670;6.750;2023-04-01T01:12:10;14.98;;;9.50;;
60292;SDS011;52402;52.670;6.750;2023-04-01T01:15:02;15.07;;;9.38;;
60292;SDS011;52402;52.670;6.750;2023-04-01T01:25:57;19.15;;;10.77;;
60292;SDS011;52402;52.670;6.750;2023-04-01T01:34:36;12.57;;;8.93;;
60292;SDS011;52402;52.670;6.750;2023-04-01T01:37:14;11.30;;;7.72;;
60292;SDS011;52402;52.670;6.750;2023-04-01T01:39:43;16.65;;;10.63;;
60292;SDS011;52402;52.670;6.750;2023-04-01T01:42:11;10.37;;;8.60;;
60292;SDS011;52402;52.670;6.750;2023-04-01T01:44:40;11.30;;;8.60;;
60292;SDS011;52402;52.670;6.750;2023-04-01T01:47:09;14.13;;;9.48;;
60292;SDS011;52402;52.670;6.750;2023-04-01T01:49:35;18.67;;;10.98;;
60292;SDS011;52402;52.670;6.750;2023-04-01T01:52:03;11.25;;;8.82;;
60292;SDS011;52402;52.670;6.750;2023-04-01T01:54:28;16.27;;;10.27;;
60292;SDS011;52402;52.670;6.750;2023-04-01T01:57:04;17.67;;;11.18;;
60292;SDS011;52402;52.670;6.750;2023-04-01T01:59:33;25.20;;;12.32;;
60292;SDS011;52402;52.670;6.750;2023-04-01T02:02:02;11.90;;;9.70;;
60292;SDS011;52402;52.670;6.750;2023-04-01T02:04:34;17.17;;;11.10;;
60292;SDS011;52402;52.670;6.750;2023-04-01T02:07:07;15.75;;;10.02;;
60292;SDS011;52402;52.670;6.750;2023-04-01T02:09:40;14.68;;;10.38;;
60292;SDS011;52402;52.670;6.750;2023-04-01T02:12:08;20.02;;;11.00;;
60292;SDS011;52402;52.670;6.750;2023-04-01T02:17:24;18.67;;;11.80;;
60292;SDS011;52402;52.670;6.750;2023-04-01T02:22:31;17.58;;;11.18;;
60292;SDS011;52402;52.670;6.750;2023-04-01T02:25:01;20.52;;;12.23;;
60292;SDS011;52402;52.670;6.750;2023-04-01T02:27:31;17.27;;;11.77;;
60292;SDS011;52402;52.670;6.750;2023-04-01T02:29:56;20.52;;;12.50;;
60292;SDS011;52402;52.670;6.750;2023-04-01T02:32:23;13.05;;;10.30;;
60292;SDS011;52402;52.670;6.750;2023-04-01T02:34:49;19.17;;;11.80;;
60292;SDS011;52402;52.670;6.750;2023-04-01T02:37:16;15.48;;;10.27;;
60292;SDS011;52402;52.670;6.750;2023-04-01T02:39:42;15.35;;;10.38;;
60292;SDS011;52402;52.670;6.750;2023-04-01T02:42:08;14.23;;;10.18;;
60292;SDS011;52402;52.670;6.750;2023-04-01T02:44:34;15.15;;;10.75;;
60292;SDS011;52402;52.670;6.750;2023-04-01T02:47:00;19.35;;;11.20;;
60292;SDS011;52402;52.670;6.750;2023-04-01T02:49:25;22.25;;;12.13;;
60292;SDS011;52402;52.670;6.750;2023-04-01T02:51:51;19.17;;;11.98;;
60292;SDS011;52402;52.670;6.750;2023-04-01T02:54:17;16.40;;;10.65;;
60292;SDS011;52402;52.670;6.750;2023-04-01T02:56:43;14.30;;;10.57;;
60292;SDS011;52402;52.670;6.750;2023-04-01T02:59:10;12.93;;;9.55;;
60292;SDS011;52402;52.670;6.750;2023-04-01T03:01:36;14.85;;;9.70;;
60292;SDS011;52402;52.670;6.750;2023-04-01T03:04:01;17.75;;;10.95;;
60292;SDS011;52402;52.670;6.750;2023-04-01T03:06:27;19.17;;;11.20;;
60292;SDS011;52402;52.670;6.750;2023-04-01T03:08:53;14.38;;;10.27;;
60292;SDS011;52402;52.670;6.750;2023-04-01T03:11:18;20.83;;;11.85;;
60292;SDS011;52402;52.670;6.750;2023-04-01T03:13:44;16.63;;;10.90;;
60292;SDS011;52402;52.670;6.750;2023-04-01T03:16:10;12.60;;;9.82;;
60292;SDS011;52402;52.670;6.750;2023-04-01T03:18:36;15.90;;;10.60;;
60292;SDS011;52402;52.670;6.750;2023-04-01T03:21:15;15.52;;;10.73;;
60292;SDS011;52402;52.670;6.750;2023-04-01T03:23:50;14.82;;;10.38;;
60292;SDS011;52402;52.670;6.750;2023-04-01T03:26:16;16.75;;;11.18;;
60292;SDS011;52402;52.670;6.750;2023-04-01T03:28:43;12.95;;;10.18;;
60292;SDS011;52402;52.670;6.750;2023-04-01T03:31:09;16.00;;;11.05;;
60292;SDS011;52402;52.670;6.750;2023-04-01T03:33:35;15.70;;;10.98;;
60292;SDS011;52402;52.670;6.750;2023-04-01T03:36:01;19.55;;;11.82;;
60292;SDS011;52402;52.670;6.750;2023-04-01T03:38:28;15.10;;;10.65;;
60292;SDS011;52402;52.670;6.750;2023-04-01T03:40:53;15.38;;;11.02;;
60292;SDS011;52402;52.670;6.750;2023-04-01T03:43:19;11.85;;;10.20;;
60292;SDS011;52402;52.670;6.750;2023-04-01T03:45:49;18.23;;;11.27;;
60292;SDS011;52402;52.670;6.750;2023-04-01T03:48:15;14.48;;;10.80;;
60292;SDS011;52402;52.670;6.750;2023-04-01T03:50:42;12.48;;;9.85;;
60292;SDS011;52402;52.670;6.750;2023-04-01T03:53:08;15.98;;;10.25;;
60292;SDS011;52402;52.670;6.750;2023-04-01T03:55:38;15.35;;;10.00;;
60292;SDS011;52402;52.670;6.750;2023-04-01T03:58:04;17.55;;;10.13;;
60292;SDS011;52402;52.670;6.750;2023-04-01T04:00:31;17.35;;;10.10;;
60292;SDS011;52402;52.670;6.750;2023-04-01T04:02:57;15.93;;;10.57;;
60292;SDS011;52402;52.670;6.750;2023-04-01T04:05:23;10.40;;;8.13;;
60292;SDS011;52402;52.670;6.750;2023-04-01T04:07:50;19.45;;;10.75;;
60292;SDS011;52402;52.670;6.750;2023-04-01T04:10:16;27.58;;;12.05;;
60292;SDS011;52402;52.670;6.750;2023-04-01T04:12:42;18.08;;;10.80;;
60292;SDS011;52402;52.670;6.750;2023-04-01T04:15:08;17.45;;;10.52;;
60292;SDS011;52402;52.670;6.750;2023-04-01T04:17:34;15.75;;;9.43;;
60292;SDS011;52402;52.670;6.750;2023-04-01T04:20:00;13.10;;;8.63;;
60292;SDS011;52402;52.670;6.750;2023-04-01T04:22:26;16.15;;;9.88;;
60292;SDS011;52402;52.670;6.750;2023-04-01T04:24:51;22.65;;;11.00;;
60292;SDS011;52402;52.670;6.750;2023-04-01T04:27:17;12.90;;;9.18;;
60292;SDS011;52402;52.670;6.750;2023-04-01T04:29:43;17.67;;;9.13;;
60292;SDS011;52402;52.670;6.750;2023-04-01T04:32:08;46.75;;;13.10;;
60292;SDS011;52402;52.670;6.750;2023-04-01T04:34:34;14.07;;;9.90;;
60292;SDS011;52402;52.670;6.750;2023-04-01T04:37:00;34.90;;;13.32;;
60292;SDS011;52402;52.670;6.750;2023-04-01T04:39:25;41.67;;;13.23;;
60292;SDS011;52402;52.670;6.750;2023-04-01T04:41:51;15.55;;;9.55;;
60292;SDS011;52402;52.670;6.750;2023-04-01T04:44:17;18.98;;;11.02;;
60292;SDS011;52402;52.670;6.750;2023-04-01T04:46:42;29.38;;;11.55;;
60292;SDS011;52402;52.670;6.750;2023-04-01T04:49:09;12.48;;;9.55;;
60292;SDS011;52402;52.670;6.750;2023-04-01T04:51:35;18.38;;;10.88;;
60292;SDS011;52402;52.670;6.750;2023-04-01T04:54:05;10.48;;;8.48;;
60292;SDS011;52402;52.670;6.750;2023-04-01T04:56:31;10.98;;;8.52;;
60292;SDS011;52402;52.670;6.750;2023-04-01T04:58:57;22.48;;;10.93;;
60292;SDS011;52402;52.670;6.750;2023-04-01T05:01:23;11.80;;;9.05;;
60292;SDS011;52402;52.670;6.750;2023-04-01T05:03:49;15.05;;;8.77;;
60292;SDS011;52402;52.670;6.750;2023-04-01T05:06:15;11.13;;;8.38;;
60292;SDS011;52402;52.670;6.750;2023-04-01T05:08:42;22.90;;;9.98;;
60292;SDS011;52402;52.670;6.750;2023-04-01T05:11:10;21.25;;;10.20;;
60292;SDS011;52402;52.670;6.750;2023-04-01T05:13:38;14.65;;;10.00;;
60292;SDS011;52402;52.670;6.750;2023-04-01T05:16:07;20.30;;;11.25;;
60292;SDS011;52402;52.670;6.750;2023-04-01T05:18:42;19.25;;;11.15;;
60292;SDS011;52402;52.670;6.750;2023-04-01T05:21:13;38.15;;;14.38;;
60292;SDS011;52402;52.670;6.750;2023-04-01T05:23:41;23.83;;;13.02;;
60292;SDS011;52402;52.670;6.750;2023-04-01T05:26:15;52.15;;;14.35;;
60292;SDS011;52402;52.670;6.750;2023-04-01T05:28:45;24.05;;;11.90;;
60292;SDS011;52402;52.670;6.750;2023-04-01T05:31:21;19.60;;;11.27;;
60292;SDS011;52402;52.670;6.750;2023-04-01T05:33:51;21.00;;;11.93;;
60292;SDS011;52402;52.670;6.750;2023-04-01T05:36:17;16.92;;;10.77;;
60292;SDS011;52402;52.670;6.750;2023-04-01T05:38:47;22.17;;;11.60;;
60292;SDS011;52402;52.670;6.750;2023-04-01T05:41:15;26.42;;;12.40;;
60292;SDS011;52402;52.670;6.750;2023-04-01T05:43:43;23.50;;;12.32;;
60292;SDS011;52402;52.670;6.750;2023-04-01T05:46:16;27.30;;;12.88;;
60292;SDS011;52402;52.670;6.750;2023-04-01T05:48:48;23.08;;;11.85;;
60292;SDS011;52402;52.670;6.750;2023-04-01T05:51:18;19.63;;;10.90;;
60292;SDS011;52402;52.670;6.750;2023-04-01T05:53:46;17.17;;;9.35;;
60292;SDS011;52402;52.670;6.750;2023-04-01T05:56:12;15.25;;;8.75;;
60292;SDS011;52402;52.670;6.750;2023-04-01T05:58:43;15.38;;;8.63;;
60292;SDS011;52402;52.670;6.750;2023-04-01T06:01:18;15.18;;;7.53;;
60292;SDS011;52402;52.670;6.750;2023-04-01T06:03:49;10.50;;;6.72;;
60292;SDS011;52402;52.670;6.750;2023-04-01T06:06:27;19.85;;;8.38;;
60292;SDS011;52402;52.670;6.750;2023-04-01T06:11:53;9.95;;;6.40;;
60292;SDS011;52402;52.670;6.750;2023-04-01T06:17:30;19.27;;;7.70;;
60292;SDS011;52402;52.670;6.750;2023-04-01T06:23:49;11.02;;;6.95;;
60292;SDS011;52402;52.670;6.750;2023-04-01T06:26:41;15.25;;;8.27;;
60292;SDS011;52402;52.670;6.750;2023-04-01T06:29:30;19.45;;;9.40;;
60292;SDS011;52402;52.670;6.750;2023-04-01T06:35:40;12.63;;;8.02;;
60292;SDS011;52402;52.670;6.750;2023-04-01T06:38:32;13.90;;;9.00;;
60292;SDS011;52402;52.670;6.750;2023-04-01T06:50:45;16.90;;;10.57;;
60292;SDS011;52402;52.670;6.750;2023-04-01T06:56:49;21.33;;;11.45;;
60292;SDS011;52402;52.670;6.750;2023-04-01T06:59:33;34.33;;;14.20;;
60292;SDS011;52402;52.670;6.750;2023-04-01T07:05:20;26.35;;;13.68;;
60292;SDS011;52402;52.670;6.750;2023-04-01T07:07:49;25.45;;;13.80;;
60292;SDS011;52402;52.670;6.750;2023-04-01T07:10:27;22.58;;;14.10;;
60292;SDS011;52402;52.670;6.750;2023-04-01T07:13:14;44.50;;;17.50;;
60292;SDS011;52402;52.670;6.750;2023-04-01T07:16:38;48.80;;;17.20;;
60292;SDS011;52402;52.670;6.750;2023-04-01T07:18:50;27.13;;;15.23;;
60292;SDS011;52402;52.670;6.750;2023-04-01T07:21:32;21.13;;;13.48;;
60292;SDS011;52402;52.670;6.750;2023-04-01T07:24:21;17.45;;;12.35;;
60292;SDS011;52402;52.670;6.750;2023-04-01T07:26:57;41.50;;;16.42;;
60292;SDS011;52402;52.670;6.750;2023-04-01T07:29:32;18.20;;;12.77;;
60292;SDS011;52402;52.670;6.750;2023-04-01T07:32:23;18.25;;;12.75;;
60292;SDS011;52402;52.670;6.750;2023-04-01T07:35:11;19.17;;;12.35;;
60292;SDS011;52402;52.670;6.750;2023-04-01T07:37:58;20.98;;;11.70;;
60292;SDS011;52402;52.670;6.750;2023-04-01T07:43:53;12.48;;;8.18;;
60292;SDS011;52402;52.670;6.750;2023-04-01T07:52:07;8.55;;;6.63;;
60292;SDS011;52402;52.670;6.750;2023-04-01T08:07:15;10.13;;;7.72;;
60292;SDS011;52402;52.670;6.750;2023-04-01T08:10:00;19.67;;;9.43;;
60292;SDS011;52402;52.670;6.750;2023-04-01T08:12:50;10.40;;;7.35;;
60292;SDS011;52402;52.670;6.750;2023-04-01T08:21:45;11.02;;;7.70;;
60292;SDS011;52402;52.670;6.750;2023-04-01T08:30:46;14.27;;;8.63;;
60292;SDS011;52402;52.670;6.750;2023-04-01T08:38:47;9.60;;;6.25;;
60292;SDS011;52402;52.670;6.750;2023-04-01T08:41:28;9.35;;;5.55;;
60292;SDS011;52402;52.670;6.750;2023-04-01T08:44:27;8.70;;;5.47;;
60292;SDS011;52402;52.670;6.750;2023-04-01T08:57:04;11.20;;;8.15;;
60292;SDS011;52402;52.670;6.750;2023-04-01T09:03:44;17.88;;;13.30;;
60292;SDS011;52402;52.670;6.750;2023-04-01T09:06:44;15.63;;;12.70;;
60292;SDS011;52402;52.670;6.750;2023-04-01T09:15:27;13.52;;;11.32;;
60292;SDS011;52402;52.670;6.750;2023-04-01T09:24:29;11.00;;;8.32;;
60292;SDS011;52402;52.670;6.750;2023-04-01T09:27:28;8.60;;;6.88;;
60292;SDS011;52402;52.670;6.750;2023-04-01T09:33:31;7.60;;;5.95;;
60292;SDS011;52402;52.670;6.750;2023-04-01T09:39:18;7.00;;;5.35;;
60292;SDS011;52402;52.670;6.750;2023-04-01T10:00:49;4.75;;;3.13;;
60292;SDS011;52402;52.670;6.750;2023-04-01T10:06:51;5.03;;;3.53;;
60292;SDS011;52402;52.670;6.750;2023-04-01T10:26:25;6.43;;;5.60;;
60292;SDS011;52402;52.670;6.750;2023-04-01T10:42:03;8.07;;;7.20;;
60292;SDS011;52402;52.670;6.750;2023-04-01T11:17:22;8.25;;;7.28;;
60292;SDS011;52402;52.670;6.750;2023-04-01T11:20:22;8.38;;;7.57;;
60292;SDS011;52402;52.670;6.750;2023-04-01T11:33:07;8.55;;;7.57;;
60292;SDS011;52402;52.670;6.750;2023-04-01T11:38:57;9.60;;;8.02;;
60292;SDS011;52402;52.670;6.750;2023-04-01T11:44:57;8.88;;;7.68;;
60292;SDS011;52402;52.670;6.750;2023-04-01T11:51:05;8.52;;;7.68;;
60292;SDS011;52402;52.670;6.750;2023-04-01T12:00:03;9.20;;;8.30;;
60292;SDS011;52402;52.670;6.750;2023-04-01T12:02:48;9.00;;;7.90;;
60292;SDS011;52402;52.670;6.750;2023-04-01T12:05:54;9.27;;;8.38;;
60292;SDS011;52402;52.670;6.750;2023-04-01T12:08:37;7.78;;;6.97;;
60292;SDS011;52402;52.670;6.750;2023-04-01T12:17:37;8.48;;;7.55;;
60292;SDS011;52402;52.670;6.750;2023-04-01T12:20:40;9.27;;;8.38;;
60292;SDS011;52402;52.670;6.750;2023-04-01T12:23:27;9.90;;;8.98;;
60292;SDS011;52402;52.670;6.750;2023-04-01T12:26:22;9.05;;;8.23;;
60292;SDS011;52402;52.670;6.750;2023-04-01T12:29:07;7.88;;;7.10;;
60292;SDS011;52402;52.670;6.750;2023-04-01T12:32:09;7.85;;;7.15;;
60292;SDS011;52402;52.670;6.750;2023-04-01T12:35:10;8.25;;;7.45;;
60292;SDS011;52402;52.670;6.750;2023-04-01T12:38:29;7.80;;;7.10;;
60292;SDS011;52402;52.670;6.750;2023-04-01T12:41:24;7.43;;;6.72;;
60292;SDS011;52402;52.670;6.750;2023-04-01T12:44:17;7.82;;;7.13;;
60292;SDS011;52402;52.670;6.750;2023-04-01T12:47:11;7.00;;;6.30;;
60292;SDS011;52402;52.670;6.750;2023-04-01T12:52:45;7.35;;;6.65;;
60292;SDS011;52402;52.670;6.750;2023-04-01T12:55:56;6.90;;;6.18;;
60292;SDS011;52402;52.670;6.750;2023-04-01T13:01:58;6.88;;;6.25;;
60292;SDS011;52402;52.670;6.750;2023-04-01T13:04:51;7.22;;;6.45;;
60292;SDS011;52402;52.670;6.750;2023-04-01T13:23:32;7.22;;;6.53;;
60292;SDS011;52402;52.670;6.750;2023-04-01T13:26:28;7.55;;;6.85;;
60292;SDS011;52402;52.670;6.750;2023-04-01T13:29:21;6.93;;;6.32;;
60292;SDS011;52402;52.670;6.750;2023-04-01T13:35:20;7.28;;;6.63;;
60292;SDS011;52402;52.670;6.750;2023-04-01T13:44:41;8.25;;;7.45;;
60292;SDS011;52402;52.670;6.750;2023-04-01T13:54:18;7.30;;;6.60;;
60292;SDS011;52402;52.670;6.750;2023-04-01T14:18:10;7.18;;;6.47;;
60292;SDS011;52402;52.670;6.750;2023-04-01T14:27:01;7.43;;;6.70;;
60292;SDS011;52402;52.670;6.750;2023-04-01T14:33:21;6.80;;;6.20;;
60292;SDS011;52402;52.670;6.750;2023-04-01T14:36:22;6.07;;;5.47;;
60292;SDS011;52402;52.670;6.750;2023-04-01T14:39:36;6.25;;;5.65;;
60292;SDS011;52402;52.670;6.750;2023-04-01T14:42:53;6.35;;;5.57;;
60292;SDS011;52402;52.670;6.750;2023-04-01T14:51:32;7.28;;;6.57;;
60292;SDS011;52402;52.670;6.750;2023-04-01T14:54:13;7.95;;;7.22;;
60292;SDS011;52402;52.670;6.750;2023-04-01T14:57:30;7.80;;;7.10;;
60292;SDS011;52402;52.670;6.750;2023-04-01T14:59:42;7.80;;;7.10;;
60292;SDS011;52402;52.670;6.750;2023-04-01T15:02:31;8.02;;;7.32;;
60292;SDS011;52402;52.670;6.750;2023-04-01T15:08:35;7.68;;;6.97;;
60292;SDS011;52402;52.670;6.750;2023-04-01T15:12:04;8.02;;;7.22;;
60292;SDS011;52402;52.670;6.750;2023-04-01T15:14:35;8.10;;;7.30;;
60292;SDS011;52402;52.670;6.750;2023-04-01T15:29:07;10.20;;;9.40;;
60292;SDS011;52402;52.670;6.750;2023-04-01T15:32:10;9.82;;;9.00;;
60292;SDS011;52402;52.670;6.750;2023-04-01T15:35:08;8.82;;;8.13;;
60292;SDS011;52402;52.670;6.750;2023-04-01T15:41:07;9.52;;;8.70;;
60292;SDS011;52402;52.670;6.750;2023-04-01T15:44:24;9.70;;;8.90;;
60292;SDS011;52402;52.670;6.750;2023-04-01T15:53:49;7.68;;;6.95;;
60292;SDS011;52402;52.670;6.750;2023-04-01T16:06:32;6.68;;;6.03;;
60292;SDS011;52402;52.670;6.750;2023-04-01T16:18:34;6.63;;;6.03;;
60292;SDS011;52402;52.670;6.750;2023-04-01T16:38:45;5.15;;;4.65;;
60292;SDS011;52402;52.670;6.750;2023-04-01T16:41:47;4.50;;;4.10;;
60292;SDS011;52402;52.670;6.750;2023-04-01T16:48:18;6.05;;;5.22;;
60292;SDS011;52402;52.670;6.750;2023-04-01T16:51:09;5.43;;;4.93;;
60292;SDS011;52402;52.670;6.750;2023-04-01T17:00:31;4.95;;;4.45;;
60292;SDS011;52402;52.670;6.750;2023-04-01T17:06:27;5.78;;;5.28;;
60292;SDS011;52402;52.670;6.750;2023-04-01T17:09:27;6.03;;;5.45;;
60292;SDS011;52402;52.670;6.750;2023-04-01T17:12:31;6.18;;;5.60;;
60292;SDS011;52402;52.670;6.750;2023-04-01T17:21:38;6.93;;;6.32;;
60292;SDS011;52402;52.670;6.750;2023-04-01T17:27:52;7.50;;;6.80;;
60292;SDS011;52402;52.670;6.750;2023-04-01T17:34:35;8.85;;;8.02;;
60292;SDS011;52402;52.670;6.750;2023-04-01T17:37:18;9.60;;;8.57;;
60292;SDS011;52402;52.670;6.750;2023-04-01T17:59:31;10.63;;;9.63;;
60292;SDS011;52402;52.670;6.750;2023-04-01T18:02:18;11.90;;;10.80;;
60292;SDS011;52402;52.670;6.750;2023-04-01T18:12:09;13.15;;;11.95;;
60292;SDS011;52402;52.670;6.750;2023-04-01T18:21:27;13.18;;;12.07;;
60292;SDS011;52402;52.670;6.750;2023-04-01T18:24:37;12.75;;;11.65;;
60292;SDS011;52402;52.670;6.750;2023-04-01T18:27:39;12.80;;;11.70;;
60292;SDS011;52402;52.670;6.750;2023-04-01T18:36:00;14.27;;;13.07;;
60292;SDS011;52402;52.670;6.750;2023-04-01T18:38:33;14.65;;;13.35;;
60292;SDS011;52402;52.670;6.750;2023-04-01T18:51:58;15.38;;;13.98;;
60292;SDS011;52402;52.670;6.750;2023-04-01T18:54:55;14.63;;;13.43;;
60292;SDS011;52402;52.670;6.750;2023-04-01T18:58:21;15.85;;;14.55;;
60292;SDS011;52402;52.670;6.750;2023-04-01T19:19:32;19.00;;;17.40;;
60292;SDS011;52402;52.670;6.750;2023-04-01T19:42:33;18.85;;;17.17;;
60292;SDS011;52402;52.670;6.750;2023-04-01T19:52:04;19.35;;;17.75;;
60292;SDS011;52402;52.670;6.750;2023-04-01T20:08:49;19.08;;;17.52;;
60292;SDS011;52402;52.670;6.750;2023-04-01T20:11:59;17.63;;;16.23;;
60292;SDS011;52402;52.670;6.750;2023-04-01T20:23:45;20.67;;;18.88;;
60292;SDS011;52402;52.670;6.750;2023-04-01T20:26:25;21.63;;;19.65;;
60292;SDS011;52402;52.670;6.750;2023-04-01T20:41:37;18.20;;;16.60;;
60292;SDS011;52402;52.670;6.750;2023-04-01T20:50:51;18.38;;;16.58;;
60292;SDS011;52402;52.670;6.750;2023-04-01T20:53:28;18.63;;;16.83;;
60292;SDS011;52402;52.670;6.750;2023-04-01T21:03:26;20.58;;;18.60;;
60292;SDS011;52402;52.670;6.750;2023-04-01T21:06:20;19.80;;;17.90;;
60292;SDS011;52402;52.670;6.750;2023-04-01T21:12:37;17.95;;;16.25;;
60292;SDS011;52402;52.670;6.750;2023-04-01T21:27:42;19.97;;;18.17;;
60292;SDS011;52402;52.670;6.750;2023-04-01T21:33:37;20.77;;;18.75;;
60292;SDS011;52402;52.670;6.750;2023-04-01T21:48:59;21.45;;;19.25;;
60292;SDS011;52402;52.670;6.750;2023-04-01T21:52:10;22.63;;;20.27;;
60292;SDS011;52402;52.670;6.750;2023-04-01T21:55:05;23.02;;;20.75;;
60292;SDS011;52402;52.670;6.750;2023-04-01T22:07:17;20.48;;;18.50;;
60292;SDS011;52402;52.670;6.750;2023-04-01T22:22:30;18.48;;;16.67;;
60292;SDS011;52402;52.670;6.750;2023-04-01T22:25:10;19.15;;;17.13;;
60292;SDS011;52402;52.670;6.750;2023-04-01T22:30:42;18.98;;;17.20;;
60292;SDS011;52402;52.670;6.750;2023-04-01T22:33:37;18.88;;;16.88;;
60292;SDS011;52402;52.670;6.750;2023-04-01T22:43:39;19.20;;;16.63;;
60292;SDS011;52402;52.670;6.750;2023-04-01T22:45:41;19.17;;;17.15;;
60292;SDS011;52402;52.670;6.750;2023-04-01T22:48:38;19.13;;;17.02;;
60292;SDS011;52402;52.670;6.750;2023-04-01T22:51:22;19.83;;;17.83;;
60292;SDS011;52402;52.670;6.750;2023-04-01T22:54:16;17.90;;;16.10;;
60292;SDS011;52402;52.670;6.750;2023-04-01T22:56:53;19.95;;;17.42;;
60292;SDS011;52402;52.670;6.750;2023-04-01T22:59:40;18.35;;;16.20;;
60292;SDS011;52402;52.670;6.750;2023-04-01T23:02:20;19.70;;;17.65;;
60292;SDS011;52402;52.670;6.750;2023-04-01T23:04:58;18.90;;;16.90;;
60292;SDS011;52402;52.670;6.750;2023-04-01T23:10:51;18.40;;;16.60;;
60292;SDS011;52402;52.670;6.750;2023-04-01T23:13:46;19.30;;;16.33;;
60292;SDS011;52402;52.670;6.750;2023-04-01T23:16:36;18.33;;;16.42;;
60292;SDS011;52402;52.670;6.750;2023-04-01T23:26:17;18.10;;;16.20;;
60292;SDS011;52402;52.670;6.750;2023-04-01T23:29:25;17.52;;;15.73;;
60292;SDS011;52402;52.670;6.750;2023-04-01T23:32:19;18.50;;;16.70;;
60292;SDS011;52402;52.670;6.750;2023-04-01T23:35:10;18.55;;;16.70;;
60292;SDS011;52402;52.670;6.750;2023-04-01T23:40:51;17.73;;;15.88;;
60292;SDS011;52402;52.670;6.750;2023-04-01T23:43:27;17.08;;;15.27;;
60292;SDS011;52402;52.670;6.750;2023-04-01T23:45:56;16.52;;;14.82;;
60292;SDS011;52402;52.670;6.750;2023-04-01T23:48:43;17.45;;;15.75;;
60292;SDS011;52402;52.670;6.750;2023-04-01T23:57:33;17.05;;;15.13;;
